Republica Dominicana

TAF

SANTO DOMINGO 22 DE ENERO DEL 2020

                                                                                                  AEROP. INT. LAS AMERICAS JFPG-

 

 

 

FTDR31 MDSD 221000Z
TAF

TAF MDPP 221000Z 2212/2312 06010KT 9999 FEW018 SCT300 PROB40 2300/2306 6000 -RA BKN018=

TAF MDST 221000Z 2212/2312 14010KT 9999 SCT022 TEMPO 2212/2214 4000 BR BKN014 BECMG 2212/2214 00000KT=

TAF MDPC 221000Z 2212/2312 17010KT 9999 FEW020 BKN300 PROB30 2213/2218 8000 –RA BKN018 BKN300=

TAF MDBH 221000Z 2212/2312 27004KT 9999 FEW020 SCT080 BKN300 BECMG 2215/2217 13014KT=

TAF MDJB 221000Z 2212/2312 00000KT 9999 FEW018 ST300 BECMG 2215/2217 18008KT SCT020 SCT300=

TAF MDSD 221000Z 2212/2312 05006KT 9999 FEW018 SCT300 BECMG 2215/2217 16010KT SCT020 SCT300=

TAF MDLR 221000Z 2212/2312 00000KT 9999 SCT018 SCT300 BECMG 2215/2217 16010KT=

TAF MDCY 221000Z 2212/2312 00000KT 9999 FEW019 SCT300 BECMG 2214/2216 16010KT=

MDPP AEROPUERTO INTERNACIONAL LA UNION PUERTO PLATA

MDST AEROPUERTO INTERNACIONAL DE SANTIAGO

MDPC AEROPUERTO INTERNACIONAL PUNTA CANA

MDBH AEROPUERTO INTERNACIONAL DE BARAHONA

MDJB AEROPUERTO INTERNACIONAL JOAQUIN BALAGUER

MDSD AEROPUERTO INTERNACIONAL LAS AMERICAS

MDLR AEROPUERTO INTERNACIONAL LA ROMANA

MDCY AEROPUERTO INTERNACIONAL DE CATEY

 

HATY MOTA

MDPP//J.ACOSTA

MDST//N.ALCANTARA

MDPC//I.FELIZ

MDBH// HATY MOTA

MDJB// HATY MOTA

MDLR// HATY MOTA

MDCY// HATY MOTA

 

 

 




Tamaño letra

Contraste

Otros